Time;durP1;ratioP1;P1;durP2;ratioP2;P2;SDS_P1;SDS_P2;PMS_P1;PMS_P2;Temp;Humidity;BMP_temperature;BMP_pressure;BME280_temperature;BME280_humidity;BME280_pressure;Samples;Min_cycle;Max_cycle;Signal;HPM_P1;HPM_P2
2022/05/24 00:02:02;;;;;;;4.05;3.00;;;;;;;17.31;51.91;94969.41;5088364;28;20036;-82
2022/05/24 00:04:28;;;;;;;5.45;3.00;;;;;;;17.14;52.64;94982.78;5088521;28;20089;-82
2022/05/24 00:06:53;;;;;;;12.82;3.22;;;;;;;17.12;52.83;94980.28;5087162;28;20028;-81
2022/05/24 00:09:19;;;;;;;5.63;2.88;;;;;;;17.00;53.34;94960.44;5088325;28;20394;-82
2022/05/24 00:11:44;;;;;;;4.15;2.80;;;;;;;17.02;53.39;94958.34;5088330;28;20031;-82
2022/05/24 00:14:09;;;;;;;10.25;3.20;;;;;;;17.04;53.38;94958.91;5088141;28;20054;-82
2022/05/24 00:16:35;;;;;;;9.50;3.10;;;;;;;17.06;53.76;94959.50;5088610;28;20042;-81
2022/05/24 00:19:01;;;;;;;6.78;3.28;;;;;;;17.07;53.87;94960.34;5070083;28;20136;-82
2022/05/24 00:21:26;;;;;;;5.18;2.97;;;;;;;17.08;53.82;94957.44;5069778;28;20063;-82
2022/05/24 00:23:51;;;;;;;6.18;3.20;;;;;;;17.02;54.01;94972.69;5086949;28;20471;-82
2022/05/24 00:26:24;;;;;;;6.55;2.72;;;;;;;17.03;53.79;94978.94;5086562;28;20020;-82
2022/05/24 00:28:50;;;;;;;5.25;3.15;;;;;;;16.99;53.89;94969.63;5070319;28;20028;-82
2022/05/24 00:31:15;;;;;;;4.82;2.95;;;;;;;17.05;53.56;94968.72;5088530;28;20417;-82
2022/05/24 00:33:41;;;;;;;5.25;2.92;;;;;;;17.01;53.27;94968.34;5088223;28;20031;-82
2022/05/24 00:36:06;;;;;;;5.38;3.25;;;;;;;16.97;53.42;94971.72;5088249;28;20487;-82
2022/05/24 00:38:36;;;;;;;4.38;2.97;;;;;;;16.88;53.71;94974.75;5088145;28;20056;-81
2022/05/24 00:41:11;;;;;;;5.25;2.80;;;;;;;16.89;53.25;94967.47;5088211;28;20032;-81
2022/05/24 00:44:01;;;;;;;5.07;2.80;;;;;;;16.89;53.82;94976.41;5086756;28;20028;-81
2022/05/24 00:46:51;;;;;;;4.38;3.08;;;;;;;16.91;53.52;94978.91;5072081;28;20061;-82
2022/05/24 00:49:40;;;;;;;5.50;2.88;;;;;;;16.88;53.68;94982.88;5086820;28;20114;-81
2022/05/24 00:52:13;;;;;;;12.18;3.42;;;;;;;16.92;53.51;94989.50;5087243;28;20137;-82
2022/05/24 00:54:39;;;;;;;6.53;2.85;;;;;;;16.94;53.58;94986.56;5086810;28;20028;-82
2022/05/24 00:57:25;;;;;;;4.03;2.72;;;;;;;17.01;52.11;94994.59;5086706;28;20024;-81
2022/05/24 00:59:54;;;;;;;5.10;2.58;;;;;;;17.11;51.78;94994.91;5086350;28;20115;-82
2022/05/24 01:02:19;;;;;;;5.72;2.50;;;;;;;17.13;51.54;94995.50;5088286;28;20103;-82
2022/05/24 01:04:45;;;;;;;4.30;2.60;;;;;;;17.09;52.02;94986.19;5087720;28;20490;-82
2022/05/24 01:07:10;;;;;;;4.78;2.67;;;;;;;17.03;52.16;94998.75;5086332;28;20044;-81
2022/05/24 01:09:46;;;;;;;8.43;2.75;;;;;;;17.02;51.62;94980.00;5068961;28;20528;-81
2022/05/24 01:12:32;;;;;;;3.95;2.33;;;;;;;17.13;51.18;94981.97;5087403;28;20024;-82
2022/05/24 01:14:59;;;;;;;3.90;2.60;;;;;;;17.17;50.89;94993.16;5086291;28;20065;-82
2022/05/24 01:17:24;;;;;;;4.30;2.95;;;;;;;17.25;50.89;94984.69;5069018;28;20502;-82
2022/05/24 01:19:50;;;;;;;5.50;2.28;;;;;;;17.31;50.53;94985.69;5085856;28;20035;-82
2022/05/24 01:22:52;;;;;;;4.35;2.38;;;;;;;17.32;51.02;94989.19;5085455;28;20031;-82
2022/05/24 01:25:48;;;;;;;2.97;2.40;;;;;;;17.24;51.15;94976.81;5087121;28;20024;-82
2022/05/24 01:28:34;;;;;;;5.68;2.60;;;;;;;17.25;51.42;94978.47;5087094;28;20028;-82
2022/05/24 01:31:00;;;;;;;6.00;2.55;;;;;;;17.23;51.72;94967.03;5085836;28;20111;-82
2022/05/24 01:36:10;;;;;;;4.75;2.70;;;;;;;17.24;51.78;94965.97;5087495;28;20047;-81
2022/05/24 01:38:36;;;;;;;4.88;2.90;;;;;;;17.29;52.00;94963.41;5085112;28;20707;-81
2022/05/24 01:41:01;;;;;;;6.82;3.33;;;;;;;17.25;52.06;94973.06;5068946;28;20085;-82
2022/05/24 01:43:26;;;;;;;6.28;2.80;;;;;;;17.24;52.45;94976.81;5087158;28;20028;-83
2022/05/24 01:45:56;;;;;;;5.38;3.05;;;;;;;17.23;52.62;94969.75;5085089;28;20475;-82
2022/05/24 01:48:27;;;;;;;4.30;3.03;;;;;;;17.17;53.24;94972.31;5085498;28;20024;-82
2022/05/24 01:50:52;;;;;;;3.47;3.17;;;;;;;17.12;53.70;94980.28;5068975;28;20032;-82
2022/05/24 01:53:27;;;;;;;7.47;3.03;;;;;;;17.06;54.10;94983.91;5068553;28;20031;-82
2022/05/24 01:55:54;;;;;;;9.20;3.30;;;;;;;17.07;54.38;94977.44;5068690;28;20508;-82
2022/05/24 01:58:20;;;;;;;5.03;2.70;;;;;;;17.00;54.62;94979.41;5085411;28;20495;-82
2022/05/24 02:00:56;;;;;;;5.15;2.83;;;;;;;17.05;54.65;94974.97;5068202;28;20058;-83
2022/05/24 02:03:22;;;;;;;5.80;2.92;;;;;;;16.98;55.03;94984.22;5069039;28;20051;-81
2022/05/24 02:05:47;;;;;;;7.32;3.38;;;;;;;17.00;54.99;94982.09;5086048;28;20020;-82
2022/05/24 02:08:13;;;;;;;9.85;3.33;;;;;;;17.01;55.14;94983.75;5086472;28;20032;-82
2022/05/24 02:10:49;;;;;;;6.55;3.38;;;;;;;17.04;55.07;94991.41;5086514;28;20434;-82
2022/05/24 02:13:27;;;;;;;6.30;3.70;;;;;;;17.08;55.09;95000.78;5086234;28;20127;-82
2022/05/24 02:15:54;;;;;;;4.40;3.60;;;;;;;17.04;55.47;95000.38;5085048;28;20573;-82
2022/05/24 02:18:20;;;;;;;7.18;4.05;;;;;;;17.05;55.78;94990.38;5085252;28;20035;-82
2022/05/24 02:20:46;;;;;;;9.30;3.90;;;;;;;17.07;55.89;94985.56;5084796;28;20031;-82
2022/05/24 02:23:13;;;;;;;7.50;3.60;;;;;;;17.09;55.94;94972.63;5086127;28;20024;-82
2022/05/24 02:25:53;;;;;;;4.80;3.65;;;;;;;17.10;55.70;94960.75;5084635;28;20513;-82
2022/05/24 02:28:21;;;;;;;5.72;3.83;;;;;;;17.07;56.01;94954.94;5084770;28;20028;-82
2022/05/24 02:30:52;;;;;;;5.97;3.65;;;;;;;17.09;56.03;94958.28;5085815;28;20031;-81
2022/05/24 02:33:18;;;;;;;6.40;3.42;;;;;;;17.10;55.82;94978.88;5084779;28;20070;-81
2022/05/24 02:35:44;;;;;;;8.32;3.85;;;;;;;17.07;55.90;94990.16;5089333;28;20430;-82
2022/05/24 02:38:09;;;;;;;4.63;3.65;;;;;;;16.97;55.97;94996.94;5088837;28;20398;-82
2022/05/24 02:43:19;;;;;;;8.27;3.40;;;;;;;16.91;56.05;95009.50;5090691;28;20027;-82
2022/05/24 02:45:44;;;;;;;4.30;3.15;;;;;;;16.82;56.22;95005.44;5090231;28;20028;-82
2022/05/24 02:48:10;;;;;;;5.13;3.10;;;;;;;16.87;56.23;94997.47;5088120;28;20028;-82
2022/05/24 02:50:35;;;;;;;7.03;3.05;;;;;;;16.74;56.53;94994.94;5088693;28;20016;-82
2022/05/24 02:53:00;;;;;;;3.65;3.00;;;;;;;16.71;56.61;94995.38;5089625;28;20047;-82
2022/05/24 02:55:26;;;;;;;4.32;2.70;;;;;;;16.66;56.37;94996.91;5088680;28;20032;-82
2022/05/24 02:57:52;;;;;;;5.57;3.00;;;;;;;16.66;56.51;95005.03;5089911;28;20050;-82
2022/05/24 03:00:19;;;;;;;3.55;3.00;;;;;;;16.69;56.36;95003.72;5089765;28;20071;-82
2022/05/24 03:02:45;;;;;;;5.97;2.80;;;;;;;16.68;56.17;95005.59;5089856;28;20506;-82
2022/05/24 03:05:12;;;;;;;5.30;3.40;;;;;;;16.65;56.20;95003.34;5089380;28;20027;-82
2022/05/24 03:10:22;;;;;;;5.32;3.35;;;;;;;16.61;56.41;95002.16;5089730;28;20119;-81
2022/05/24 03:15:31;;;;;;;3.53;2.90;;;;;;;16.63;56.35;95005.47;5089712;28;20031;-82
2022/05/24 03:17:57;;;;;;;6.43;3.70;;;;;;;16.66;56.38;95009.59;5089402;28;20020;-80
2022/05/24 03:20:22;;;;;;;4.80;2.97;;;;;;;16.61;56.75;95009.44;5070834;28;20036;-82
2022/05/24 03:22:48;;;;;;;5.57;3.40;;;;;;;16.47;57.27;94998.78;5088113;28;20050;-82
2022/05/24 03:25:13;;;;;;;7.80;3.78;;;;;;;16.43;57.36;94998.41;5089522;28;20024;-82
2022/05/24 03:27:39;;;;;;;7.30;3.83;;;;;;;16.47;57.60;94997.94;5089097;28;20028;-82
2022/05/24 03:30:05;;;;;;;5.60;3.65;;;;;;;16.49;57.15;94999.34;5088953;28;20023;-82
2022/05/24 03:32:30;;;;;;;6.00;3.60;;;;;;;16.53;57.28;94994.34;5089069;28;20033;-82
2022/05/24 03:34:56;;;;;;;4.68;3.13;;;;;;;16.55;57.22;95009.31;5089097;28;20024;-82
2022/05/24 03:37:21;;;;;;;6.90;3.72;;;;;;;16.56;57.30;95012.81;5088702;28;20065;-83
2022/05/24 03:39:46;;;;;;;6.50;3.60;;;;;;;16.50;57.75;95011.03;5089006;28;20036;-81
2022/05/24 03:42:13;;;;;;;5.43;3.67;;;;;;;16.46;57.71;95009.84;5087857;28;20020;-82
2022/05/24 03:44:38;;;;;;;4.35;3.58;;;;;;;16.44;57.94;95005.44;5087095;28;20028;-82
2022/05/24 03:47:04;;;;;;;7.45;4.22;;;;;;;16.47;58.29;95003.34;5088984;28;20391;-82
2022/05/24 03:49:30;;;;;;;8.07;3.63;;;;;;;16.47;58.16;94995.22;5088718;28;20024;-81
2022/05/24 03:51:55;;;;;;;5.38;3.72;;;;;;;16.47;57.99;95006.06;5088438;28;20048;-81
2022/05/24 03:54:20;;;;;;;7.65;4.25;;;;;;;16.52;57.78;95003.50;5088344;28;20118;-82
2022/05/24 03:59:30;;;;;;;6.15;3.70;;;;;;;16.41;57.97;95008.59;5088698;28;20445;-81
2022/05/24 04:01:56;;;;;;;8.43;3.25;;;;;;;16.42;58.24;95013.00;5088404;28;20075;-82
2022/05/24 04:04:22;;;;;;;4.90;3.50;;;;;;;16.42;58.20;95020.28;5088454;28;20024;-82
2022/05/24 04:06:47;;;;;;;7.75;3.72;;;;;;;16.49;58.10;95022.91;5088463;28;20109;-81
2022/05/24 04:09:13;;;;;;;7.38;3.40;;;;;;;16.56;57.89;95032.63;5088468;28;20112;-82
2022/05/24 04:11:38;;;;;;;4.47;3.45;;;;;;;16.61;57.80;95028.38;5088276;28;20406;-81
2022/05/24 04:14:04;;;;;;;8.65;3.40;;;;;;;16.59;58.00;95035.94;5088441;28;20056;-81
2022/05/24 04:16:29;;;;;;;4.95;3.92;;;;;;;16.61;57.65;95025.69;5086787;28;20028;-82
2022/05/24 04:18:55;;;;;;;7.82;3.60;;;;;;;16.73;57.31;95020.34;5088046;28;20027;-83
2022/05/24 04:21:20;;;;;;;7.47;4.03;;;;;;;16.66;57.98;95023.13;5088165;28;20027;-83
2022/05/24 04:23:46;;;;;;;7.20;4.00;;;;;;;16.76;57.62;95025.31;5086695;28;20028;-82
2022/05/24 04:26:11;;;;;;;6.47;4.00;;;;;;;16.77;57.50;95026.97;5088038;28;20024;-83
2022/05/24 04:28:37;;;;;;;14.30;4.72;;;;;;;16.72;57.79;95026.84;5087918;28;20032;-82
2022/05/24 04:31:04;;;;;;;5.63;4.00;;;;;;;16.71;58.22;95023.28;5088036;28;20028;-82
2022/05/24 04:33:29;;;;;;;6.70;4.13;;;;;;;16.79;57.90;95030.28;5087726;28;20024;-82
2022/05/24 04:35:56;;;;;;;5.85;3.72;;;;;;;16.92;57.37;95034.72;5087990;28;20114;-82
2022/05/24 04:38:22;;;;;;;8.23;3.67;;;;;;;17.01;57.55;95027.09;5088080;28;20035;-83
2022/05/24 04:43:32;;;;;;;9.55;4.00;;;;;;;17.66;55.39;95030.22;5087895;28;20881;-84
2022/05/24 04:45:57;;;;;;;5.72;4.07;;;;;;;17.60;55.92;95033.84;5086737;28;20031;-82
2022/05/24 04:48:23;;;;;;;5.82;4.05;;;;;;;17.90;54.88;95039.22;5088018;28;20032;-84
2022/05/24 04:50:53;;;;;;;7.80;4.03;;;;;;;18.02;54.89;95046.56;5086311;28;20428;-83
2022/05/24 04:53:18;;;;;;;7.72;3.65;;;;;;;18.21;53.95;95049.19;5091081;28;20085;-82
2022/05/24 04:55:43;;;;;;;9.45;3.88;;;;;;;18.44;53.42;95048.41;5086123;28;20028;-83
2022/05/24 04:58:11;;;;;;;7.53;3.83;;;;;;;18.59;52.83;95056.03;5085197;28;20370;-82
2022/05/24 05:00:37;;;;;;;17.98;5.45;;;;;;;18.74;52.71;95047.41;5087146;28;20478;-82
2022/05/24 05:03:10;;;;;;;8.55;3.75;;;;;;;18.83;52.12;95053.28;5087218;28;20074;-83
2022/05/24 05:05:35;;;;;;;;;;;;;;;19.00;51.64;95052.56;5087634;28;20422;-82
2022/05/24 05:08:01;;;;;;;5.90;3.78;;;;;;;19.00;52.46;95052.56;5087220;28;19912;-81
2022/05/24 05:10:26;;;;;;;5.10;3.60;;;;;;;19.02;52.51;95045.00;5087209;28;20013;-83
2022/05/24 05:12:51;;;;;;;7.75;3.50;;;;;;;19.02;51.84;95051.25;5087046;28;20013;-82
2022/05/24 05:15:17;;;;;;;4.65;3.25;;;;;;;18.95;52.02;95055.16;5085500;28;20073;-82
2022/05/24 05:17:43;;;;;;;5.85;3.38;;;;;;;18.78;52.54;95055.94;5087951;28;20141;-82
2022/05/24 05:20:08;;;;;;;15.02;3.67;;;;;;;18.62;52.46;95066.44;5085511;28;20157;-83
2022/05/24 05:22:34;;;;;;;6.70;3.92;;;;;;;18.50;53.18;95073.75;5086939;28;20055;-84
2022/05/24 05:24:59;;;;;;;8.77;3.25;;;;;;;18.43;52.83;95064.91;5085672;28;20085;-84
2022/05/24 05:27:25;;;;;;;6.03;3.10;;;;;;;18.47;53.26;95060.66;5087003;28;20020;-81
2022/05/24 05:32:34;;;;;;;6.88;3.42;;;;;;;19.08;51.60;95068.50;5085390;28;20035;-82
2022/05/24 05:35:00;;;;;;;6.38;3.25;;;;;;;19.32;51.13;95064.91;5085801;28;20028;-82
2022/05/24 05:37:27;;;;;;;10.75;3.60;;;;;;;19.52;51.12;95072.66;5086690;28;20024;-84
2022/05/24 05:39:52;;;;;;;5.70;3.67;;;;;;;19.71;49.80;95076.00;5085146;28;20024;-83
2022/05/24 05:42:19;;;;;;;8.07;3.80;;;;;;;19.77;50.47;95074.19;5086745;28;20028;-83
2022/05/24 05:44:44;;;;;;;6.28;3.50;;;;;;;19.91;49.83;95073.88;5086456;28;20089;-85
2022/05/24 05:47:11;;;;;;;8.07;3.55;;;;;;;20.13;49.22;95069.38;5086678;28;20048;-86
2022/05/24 05:49:36;;;;;;;10.27;3.90;;;;;;;20.32;49.01;95077.31;5086486;28;20043;-83
2022/05/24 05:52:02;;;;;;;5.38;3.47;;;;;;;20.44;48.14;95070.97;5086509;28;20040;-83
2022/05/24 05:54:27;;;;;;;7.97;4.10;;;;;;;20.33;48.73;95081.69;5085971;28;20039;-84
2022/05/24 05:56:53;;;;;;;11.10;4.30;;;;;;;20.35;48.83;95079.56;5084645;28;20039;-85
2022/05/24 05:59:18;;;;;;;7.25;3.90;;;;;;;20.61;48.22;95093.56;5086483;28;20020;-84
2022/05/24 06:01:43;;;;;;;9.45;3.60;;;;;;;20.55;48.17;95089.13;5084615;28;20024;-84
2022/05/24 06:04:09;;;;;;;8.45;3.90;;;;;;;20.76;48.07;95089.44;5086472;28;20028;-84
2022/05/24 06:06:37;;;;;;;8.73;4.45;;;;;;;20.86;48.00;95089.56;5085075;28;20032;-83
2022/05/24 06:09:03;;;;;;;10.05;4.25;;;;;;;20.68;48.81;95087.97;5084832;28;20020;-83
2022/05/24 06:11:28;;;;;;;7.60;4.05;;;;;;;20.74;48.14;95092.41;5086077;28;20020;-82
2022/05/24 06:13:54;;;;;;;9.57;4.18;;;;;;;20.71;47.66;95094.78;5085953;28;20579;-82
2022/05/24 06:16:20;;;;;;;7.63;4.20;;;;;;;20.82;47.18;95093.88;5085901;28;20100;-85
2022/05/24 06:18:45;;;;;;;7.25;3.72;;;;;;;21.09;47.15;95098.63;5084891;28;20020;-85
2022/05/24 06:21:10;;;;;;;11.77;4.70;;;;;;;21.22;46.82;95091.13;5085947;28;20070;-84
2022/05/24 06:23:36;;;;;;;6.82;4.07;;;;;;;21.33;45.78;95084.72;5086361;28;20032;-83
2022/05/24 06:26:01;;;;;;;7.68;4.63;;;;;;;21.29;46.15;95080.88;5084307;28;20012;-85
2022/05/24 06:28:28;;;;;;;10.50;5.32;;;;;;;21.40;45.07;95083.72;5086045;28;20024;-82
2022/05/24 06:30:53;;;;;;;6.28;3.50;;;;;;;21.48;45.19;95067.75;5085908;28;20035;-83
2022/05/24 06:33:19;;;;;;;9.75;4.07;;;;;;;21.41;46.09;95071.75;5084365;28;20486;-82
2022/05/24 06:35:44;;;;;;;11.75;4.35;;;;;;;21.56;47.86;95077.38;5086820;28;20402;-82
2022/05/24 06:38:10;;;;;;;11.93;4.05;;;;;;;21.58;47.89;95088.03;5085804;28;20036;-82
2022/05/24 06:40:35;;;;;;;9.20;4.47;;;;;;;21.79;47.04;95088.28;5086256;28;20482;-84
2022/05/24 06:43:02;;;;;;;8.05;4.13;;;;;;;21.94;44.69;95079.44;5085185;28;20026;-86
2022/05/24 06:45:29;;;;;;;8.15;4.35;;;;;;;22.00;44.54;95080.28;5086055;28;20030;-82
2022/05/24 06:47:54;;;;;;;9.13;4.53;;;;;;;22.12;44.20;95071.94;5085638;28;20032;-82
2022/05/24 06:50:20;;;;;;;9.10;4.30;;;;;;;22.28;44.68;95078.34;5085490;28;20054;-85
2022/05/24 06:52:45;;;;;;;10.82;4.40;;;;;;;22.08;44.16;95074.34;5085772;28;20408;-86
2022/05/24 06:55:11;;;;;;;7.88;4.68;;;;;;;22.34;43.64;95061.72;5085339;28;20067;-83
2022/05/24 06:57:36;;;;;;;7.90;4.20;;;;;;;22.40;43.97;95073.53;5085693;28;20111;-85
2022/05/24 07:02:48;;;;;;;6.90;4.18;;;;;;;22.30;44.46;95062.50;5086630;28;20056;-84
2022/05/24 07:05:18;;;;;;;6.53;4.03;;;;;;;22.35;44.02;95052.47;5085525;28;20036;-84
2022/05/24 07:07:44;;;;;;;8.50;4.43;;;;;;;22.56;43.21;95058.06;5085734;28;20028;-83
2022/05/24 07:10:12;;;;;;;8.13;4.15;;;;;;;22.76;44.31;95061.22;5084173;28;20023;-83
2022/05/24 07:47:21;;;;;;;8.48;4.22;;;;;;;23.22;42.77;95060.63;5071294;28;20040;-81
2022/05/24 07:49:46;;;;;;;6.80;4.30;;;;;;;23.31;43.20;95058.22;5087247;28;20077;-84
2022/05/24 07:52:12;;;;;;;6.88;4.05;;;;;;;23.40;42.43;95061.28;5071316;28;20036;-83
2022/05/24 07:54:37;;;;;;;7.22;3.95;;;;;;;23.50;42.54;95055.03;5087059;28;20031;-82
2022/05/24 07:57:04;;;;;;;14.30;4.43;;;;;;;23.43;43.14;95047.06;5088496;28;20058;-83
2022/05/24 07:59:29;;;;;;;7.10;4.15;;;;;;;23.60;42.64;95046.03;5086934;28;20055;-83
2022/05/24 08:01:55;;;;;;;7.13;3.90;;;;;;;23.62;42.22;95047.41;5087807;28;20031;-85
2022/05/24 08:04:20;;;;;;;7.22;4.05;;;;;;;23.67;42.27;95052.88;5105612;28;20034;-84
2022/05/24 08:06:46;;;;;;;7.93;4.00;;;;;;;23.35;42.49;95062.06;5087213;28;20027;-82
2022/05/24 08:09:11;;;;;;;5.88;4.30;;;;;;;23.12;43.73;95055.94;5070837;28;20433;-84
2022/05/24 08:11:37;;;;;;;5.60;3.38;;;;;;;22.96;43.62;95055.88;5087327;28;20024;-82
2022/05/24 08:14:03;;;;;;;6.05;3.95;;;;;;;23.10;42.78;95052.69;5070900;28;20484;-83
2022/05/24 08:16:29;;;;;;;13.70;4.30;;;;;;;23.36;43.37;95054.69;5070034;28;20028;-83
2022/05/24 08:18:55;;;;;;;7.95;4.40;;;;;;;23.53;43.07;95058.06;5071716;28;20149;-82
2022/05/24 08:21:20;;;;;;;9.07;4.20;;;;;;;23.63;42.77;95056.44;5088258;28;20028;-83
2022/05/24 08:23:48;;;;;;;8.65;4.20;;;;;;;23.65;42.53;95054.25;5106541;28;20046;-84
2022/05/24 08:26:13;;;;;;;12.80;4.25;;;;;;;23.32;43.03;95047.03;5106513;28;20027;-82
2022/05/24 08:28:41;;;;;;;8.10;4.30;;;;;;;23.49;43.25;95048.72;5071589;28;20016;-83
2022/05/24 08:31:08;;;;;;;5.75;3.80;;;;;;;23.71;43.14;95047.69;5091379;28;20107;-83
2022/05/24 08:33:33;;;;;;;10.55;5.03;;;;;;;23.37;42.79;95046.22;5091942;28;20417;-82
2022/05/24 08:35:59;;;;;;;11.38;4.35;;;;;;;22.99;44.18;95043.56;5073992;28;20473;-83
2022/05/24 08:38:26;;;;;;;11.10;5.85;;;;;;;23.00;43.72;95039.78;5106526;28;20020;-83
2022/05/24 08:40:55;;;;;;;7.72;4.88;;;;;;;23.15;44.32;95057.34;5105570;28;20024;-83
2022/05/24 08:43:50;;;;;;;11.90;4.93;;;;;;;23.43;43.84;95053.38;5089110;28;20047;-83
2022/05/24 08:49:05;;;;;;;10.40;4.75;;;;;;;23.86;43.12;95046.09;5088845;28;20239;-83
2022/05/24 08:51:39;;;;;;;10.52;4.63;;;;;;;23.89;43.73;95042.81;5086903;28;20026;-83
2022/05/24 08:54:10;;;;;;;9.13;4.50;;;;;;;23.79;42.96;95052.66;5072455;28;20036;-84
2022/05/24 08:56:50;;;;;;;8.07;4.78;;;;;;;23.97;42.91;95044.19;5088388;28;20405;-83
2022/05/24 08:59:21;;;;;;;9.02;4.97;;;;;;;24.04;43.52;95051.03;5086858;28;20031;-83
2022/05/24 09:01:47;;;;;;;9.27;4.70;;;;;;;24.27;43.04;95039.81;5088817;28;20024;-83
2022/05/24 09:04:12;;;;;;;8.57;4.75;;;;;;;24.30;42.52;95039.28;5086272;28;20040;-84
2022/05/24 09:07:03;;;;;;;10.73;4.43;;;;;;;24.46;42.75;95031.88;5071795;28;20069;-83
2022/05/24 09:09:46;;;;;;;9.25;4.95;;;;;;;24.59;41.78;95032.41;5087684;28;20484;-83
2022/05/24 09:12:23;;;;;;;9.25;4.47;;;;;;;24.63;42.42;95033.50;5088120;28;20152;-83
2022/05/24 09:18:43;;;;;;;8.13;4.55;;;;;;;24.75;41.83;95022.22;5088945;28;20135;-84
2022/05/24 09:21:37;;;;;;;10.35;5.30;;;;;;;24.47;43.70;95019.81;5078828;28;20036;-82
2022/05/24 09:24:16;;;;;;;8.13;4.70;;;;;;;24.71;41.96;95018.41;5088207;28;20036;-83
2022/05/24 09:27:01;;;;;;;9.27;5.20;;;;;;;24.53;42.57;95007.75;5070836;28;20020;-83
2022/05/24 09:29:27;;;;;;;7.82;4.90;;;;;;;24.63;42.38;95009.66;5069816;28;20434;-82
2022/05/24 09:31:52;;;;;;;7.32;5.00;;;;;;;24.67;42.03;95012.66;5088719;28;20032;-83
2022/05/24 09:34:17;;;;;;;9.95;5.30;;;;;;;24.75;42.09;95022.22;5086624;28;20024;-83
2022/05/24 09:36:55;;;;;;;6.15;4.72;;;;;;;24.81;42.75;95030.16;5090863;28;20023;-84
2022/05/24 09:39:35;;;;;;;10.18;4.93;;;;;;;24.92;42.64;95025.50;5093348;28;20020;-83
2022/05/24 09:42:02;;;;;;;10.65;4.85;;;;;;;25.04;42.78;95018.88;5094622;28;20534;-85
2022/05/24 09:44:29;;;;;;;10.07;5.45;;;;;;;25.14;42.10;95020.75;5090865;28;20052;-85
2022/05/24 09:46:54;;;;;;;7.63;4.45;;;;;;;25.37;41.43;95005.59;5069738;28;20029;-84
2022/05/24 09:49:31;;;;;;;9.35;5.00;;;;;;;25.46;41.02;95014.03;5087431;28;20029;-83
2022/05/24 09:51:56;;;;;;;7.50;5.30;;;;;;;25.16;41.61;95019.41;5087193;28;20016;-83
2022/05/24 09:54:27;;;;;;;9.10;5.05;;;;;;;25.23;41.58;95008.09;5088747;28;20028;-83
2022/05/24 09:57:09;;;;;;;7.18;5.18;;;;;;;25.35;42.01;95004.19;5068624;28;20533;-84
2022/05/24 09:59:35;;;;;;;;;;;;;;;25.15;41.86;94997.72;5070193;28;20052;-84
2022/05/24 10:02:02;;;;;;;8.70;5.75;;;;;;;25.21;42.27;94993.84;5087324;28;19912;-84
2022/05/24 10:04:27;;;;;;;9.15;5.40;;;;;;;25.37;41.64;95002.00;5068562;28;20355;-83
2022/05/24 10:07:02;;;;;;;7.75;5.38;;;;;;;25.44;43.87;94991.53;5089275;28;20535;-85
2022/05/24 10:09:52;;;;;;;12.15;5.68;;;;;;;25.30;41.90;94992.16;5084877;28;20073;-83
2022/05/24 10:12:59;;;;;;;9.75;5.30;;;;;;;25.41;42.30;94987.44;5088159;28;20038;-83
2022/05/24 10:15:39;;;;;;;11.65;6.07;;;;;;;25.32;41.67;94991.88;4989643;28;20547;-84
2022/05/24 10:18:26;;;;;;;7.72;5.55;;;;;;;25.43;40.69;94992.63;5078075;28;20024;-82
2022/05/24 10:21:04;;;;;;;10.13;5.78;;;;;;;25.57;43.85;94989.28;5086855;28;20024;-84
2022/05/24 10:24:00;;;;;;;9.25;5.60;;;;;;;25.70;41.73;94994.16;5087941;28;20028;-84
2022/05/24 10:26:43;;;;;;;7.10;5.57;;;;;;;25.58;41.71;94986.25;5086067;28;20028;-85
2022/05/24 10:29:28;;;;;;;14.13;6.00;;;;;;;25.60;41.28;94981.28;5088445;28;20024;-83
2022/05/24 10:31:59;;;;;;;11.20;5.80;;;;;;;25.69;41.13;94981.53;5086455;28;20028;-84
2022/05/24 10:40:45;;;;;;;9.93;5.60;;;;;;;25.69;42.10;94965.06;5087475;28;20039;-84
2022/05/24 10:43:58;;;;;;;15.23;6.10;;;;;;;25.59;41.71;94962.34;5085519;28;20073;-83
2022/05/24 10:46:29;;;;;;;11.88;6.13;;;;;;;25.75;43.47;94952.94;5092034;28;20180;-83
2022/05/24 10:49:06;;;;;;;9.48;5.93;;;;;;;25.86;42.09;94958.34;5089858;28;20108;-83
2022/05/24 10:51:40;;;;;;;9.20;6.10;;;;;;;25.97;41.91;94962.63;5089749;28;20020;-83
2022/05/24 10:54:05;;;;;;;13.52;6.10;;;;;;;26.10;40.68;94965.84;5087743;28;20042;-84
2022/05/24 10:56:44;;;;;;;12.32;6.10;;;;;;;26.21;40.56;94964.66;5085634;28;20103;-85
2022/05/24 10:59:43;;;;;;;8.45;5.72;;;;;;;26.42;40.22;94961.72;5086585;28;20051;-83
2022/05/24 11:02:13;;;;;;;11.48;5.70;;;;;;;26.51;40.71;94956.41;5085308;28;20028;-84
2022/05/24 11:04:49;;;;;;;10.40;6.07;;;;;;;26.71;40.42;94954.56;5068792;28;20035;-83
2022/05/24 11:07:18;;;;;;;9.52;6.93;;;;;;;26.86;39.80;94948.06;5086204;28;20024;-84
2022/05/24 11:10:07;;;;;;;9.60;5.90;;;;;;;27.01;39.20;94947.91;5067425;28;20028;-84
2022/05/24 11:12:38;;;;;;;9.07;5.97;;;;;;;27.08;39.09;94935.72;5087827;28;20028;-85
2022/05/24 11:15:12;;;;;;;11.98;6.95;;;;;;;27.09;39.26;94937.34;5085177;28;20386;-85
2022/05/24 11:17:38;;;;;;;9.63;5.57;;;;;;;27.02;39.66;94923.94;5085101;28;20028;-87
2022/05/24 11:20:04;;;;;;;9.10;6.32;;;;;;;27.18;39.11;94921.00;5087399;28;20080;-84
2022/05/24 11:22:52;;;;;;;8.27;6.00;;;;;;;27.10;39.56;94933.50;5083929;28;20043;-84
2022/05/24 11:25:26;;;;;;;9.25;5.88;;;;;;;27.03;38.51;94922.84;5086149;28;20020;-85
2022/05/24 11:28:05;;;;;;;7.43;5.80;;;;;;;27.19;39.17;94919.88;5068135;28;20523;-84
2022/05/24 11:30:30;;;;;;;8.82;7.05;;;;;;;27.09;39.10;94920.81;5085184;28;20082;-83
2022/05/24 11:33:17;;;;;;;10.93;6.30;;;;;;;27.22;39.34;94916.53;5085685;28;20032;-84
2022/05/24 11:35:50;;;;;;;10.32;6.60;;;;;;;27.36;40.95;94905.59;5085181;28;20508;-83
2022/05/24 11:38:16;;;;;;;8.27;6.38;;;;;;;27.44;39.50;94893.09;5086505;28;20026;-85
2022/05/24 11:40:54;;;;;;;12.05;5.90;;;;;;;27.47;38.04;94887.78;5084015;28;20028;-84
2022/05/24 11:43:34;;;;;;;10.85;6.07;;;;;;;27.43;37.88;94892.28;5086835;28;20028;-83
2022/05/24 11:46:28;;;;;;;12.57;6.28;;;;;;;27.52;38.50;94890.47;5086359;28;20445;-85
2022/05/24 11:48:54;;;;;;;12.55;6.07;;;;;;;27.72;37.31;94885.78;5084792;28;20028;-84
2022/05/24 11:51:31;;;;;;;7.88;5.60;;;;;;;27.85;38.72;94877.88;5068956;28;20078;-83
2022/05/24 11:53:57;;;;;;;9.52;5.93;;;;;;;27.97;36.62;94867.19;5084932;28;20420;-83
2022/05/24 11:56:24;;;;;;;13.35;5.97;;;;;;;27.89;36.81;94862.38;5089054;28;20031;-84
2022/05/24 11:58:54;;;;;;;8.85;6.03;;;;;;;27.94;38.26;94854.00;5087021;28;20050;-84
2022/05/24 12:01:19;;;;;;;9.35;6.20;;;;;;;28.10;37.13;94854.53;5085586;28;20020;-83
2022/05/24 12:10:00;;;;;;;10.47;6.30;;;;;;;28.15;38.59;94850.88;5084942;28;20127;-83
2022/05/24 12:12:30;;;;;;;9.20;6.60;;;;;;;28.33;37.33;94856.63;5085875;28;20043;-84
2022/05/24 12:15:14;;;;;;;10.63;6.32;;;;;;;28.37;36.47;94852.16;5083469;28;20020;-87
2022/05/24 12:17:40;;;;;;;8.52;5.90;;;;;;;28.45;37.68;94859.72;5086730;28;20051;-85
2022/05/24 12:20:26;;;;;;;16.02;6.57;;;;;;;28.60;37.39;94850.31;5068958;28;20482;-85
2022/05/24 12:23:14;;;;;;;15.63;6.35;;;;;;;28.86;35.59;94848.94;5087503;28;20032;-84
2022/05/24 12:26:08;;;;;;;11.50;6.38;;;;;;;28.95;35.41;94843.53;5090901;28;20065;-83
2022/05/24 12:28:37;;;;;;;10.52;5.53;;;;;;;28.91;35.87;94842.50;5087709;28;20027;-85
2022/05/24 12:31:17;;;;;;;9.50;6.00;;;;;;;28.83;35.79;94844.06;5090113;28;20053;-84
2022/05/24 12:33:46;;;;;;;10.60;5.78;;;;;;;28.77;35.19;94837.00;5090636;28;20024;-85
2022/05/24 12:36:32;;;;;;;13.02;6.28;;;;;;;29.00;36.19;94846.22;5087367;28;20028;-83
2022/05/24 12:39:01;;;;;;;7.95;5.53;;;;;;;29.14;35.09;94839.81;5089296;28;20023;-84
2022/05/24 12:41:37;;;;;;;12.57;6.35;;;;;;;29.25;34.66;94841.22;5087017;28;20055;-83
2022/05/24 12:44:11;;;;;;;9.85;5.68;;;;;;;29.42;34.36;94843.31;5088274;28;20048;-84
2022/05/24 12:46:36;;;;;;;10.55;5.78;;;;;;;29.55;34.47;94835.28;5089203;28;20252;-85
2022/05/24 12:49:10;;;;;;;11.00;5.60;;;;;;;29.65;34.74;94832.28;5070386;28;20020;-84
2022/05/24 12:51:37;;;;;;;9.57;5.80;;;;;;;29.63;34.48;94831.81;5072587;28;20514;-85
2022/05/24 12:54:19;;;;;;;10.93;5.78;;;;;;;29.69;33.59;94832.47;5086617;28;20024;-85
2022/05/24 12:57:04;;;;;;;;;;;;;;;29.67;34.68;94830.03;5089793;28;20482;-85
2022/05/24 12:59:36;;;;;;;9.93;5.47;;;;;;;29.84;33.75;94828.53;5088883;28;19912;-84
2022/05/24 13:02:25;;;;;;;;;;;;;;;29.97;34.93;94821.28;5087990;28;20054;-83